createdAt,value
2023-01-22T00:01:34.221Z,3.42
2023-01-22T00:04:01.255Z,3.42
2023-01-22T00:06:28.264Z,3.85
2023-01-22T00:08:55.412Z,3.55
2023-01-22T00:11:24.242Z,3.40
2023-01-22T00:13:51.410Z,3.55
2023-01-22T00:16:19.001Z,3.33
2023-01-22T00:18:45.885Z,3.60
2023-01-22T00:21:14.523Z,3.70
2023-01-22T00:23:41.478Z,3.40
2023-01-22T00:26:11.847Z,4.18
2023-01-22T00:28:42.301Z,3.75
2023-01-22T00:31:11.460Z,3.75
2023-01-22T00:33:39.737Z,3.90
2023-01-22T00:36:12.043Z,3.78
2023-01-22T00:38:40.931Z,4.10
2023-01-22T00:41:09.754Z,3.67
2023-01-22T00:43:38.122Z,3.58
2023-01-22T00:46:08.190Z,3.13
2023-01-22T00:48:35.440Z,3.25
2023-01-22T00:51:02.703Z,2.90
2023-01-22T00:53:30.033Z,3.03
2023-01-22T00:56:00.241Z,3.47
2023-01-22T00:58:29.449Z,3.50
2023-01-22T01:00:56.477Z,1.83
2023-01-22T01:03:24.677Z,2.92
2023-01-22T01:05:51.980Z,3.13
2023-01-22T01:08:19.186Z,2.70
2023-01-22T01:10:46.173Z,2.90
2023-01-22T01:13:13.192Z,2.97
2023-01-22T01:15:40.203Z,2.95
2023-01-22T01:18:07.139Z,2.58
2023-01-22T01:20:35.555Z,2.85
2023-01-22T01:23:02.493Z,2.70
2023-01-22T01:25:29.498Z,3.10
2023-01-22T01:27:56.429Z,2.88
2023-01-22T01:30:23.310Z,2.97
2023-01-22T01:32:50.086Z,3.30
2023-01-22T01:35:17.345Z,2.78
2023-01-22T01:37:45.442Z,3.03
2023-01-22T01:40:13.439Z,2.78
2023-01-22T01:42:46.909Z,2.67
2023-01-22T01:45:24.120Z,2.70
2023-01-22T01:47:57.826Z,2.13
2023-01-22T01:50:27.682Z,2.95
2023-01-22T01:52:59.411Z,2.90
2023-01-22T01:55:31.345Z,2.67
2023-01-22T01:58:04.052Z,2.78
2023-01-22T02:00:35.096Z,2.45
2023-01-22T02:03:03.055Z,2.90
2023-01-22T02:05:37.340Z,2.67
2023-01-22T02:08:07.555Z,2.92
2023-01-22T02:10:35.055Z,2.50
2023-01-22T02:13:10.297Z,2.35
2023-01-22T02:15:39.793Z,2.47
2023-01-22T02:18:07.407Z,2.78
2023-01-22T02:20:37.787Z,2.80
2023-01-22T02:23:08.357Z,3.00
2023-01-22T02:25:35.245Z,2.33
2023-01-22T02:28:02.555Z,2.50
2023-01-22T02:30:29.345Z,2.45
2023-01-22T02:32:57.239Z,2.53
2023-01-22T02:35:24.893Z,2.60
2023-01-22T02:37:53.528Z,2.80
2023-01-22T02:40:22.179Z,2.72
2023-01-22T02:42:49.575Z,2.72
2023-01-22T02:45:16.522Z,2.80
2023-01-22T02:47:43.333Z,2.70
2023-01-22T02:50:11.963Z,2.60
2023-01-22T02:52:40.081Z,2.80
2023-01-22T02:55:09.801Z,2.72
2023-01-22T02:57:39.187Z,2.15
2023-01-22T03:00:08.228Z,2.95
2023-01-22T03:02:35.033Z,1.98
2023-01-22T03:05:02.286Z,2.70
2023-01-22T03:07:31.843Z,2.80
2023-01-22T03:09:59.030Z,2.53
2023-01-22T03:12:28.441Z,2.78
2023-01-22T03:15:04.543Z,2.50
2023-01-22T03:17:31.489Z,2.33
2023-01-22T03:19:59.579Z,2.55
2023-01-22T03:22:27.443Z,2.42
2023-01-22T03:24:54.739Z,2.53
2023-01-22T03:27:28.058Z,2.33
2023-01-22T03:29:55.359Z,2.60
2023-01-22T03:32:24.022Z,2.60
2023-01-22T03:34:51.298Z,2.28
2023-01-22T03:37:18.551Z,2.63
2023-01-22T03:39:48.390Z,2.67
2023-01-22T03:42:26.695Z,2.22
2023-01-22T03:44:55.039Z,2.45
2023-01-22T03:47:22.005Z,2.50
2023-01-22T03:49:49.568Z,2.20
2023-01-22T03:52:16.495Z,2.20
2023-01-22T03:54:43.284Z,2.20
2023-01-22T03:57:11.432Z,2.00
2023-01-22T04:02:40.720Z,2.63
2023-01-22T04:05:17.790Z,2.08
2023-01-22T04:07:44.867Z,2.65
2023-01-22T04:10:13.058Z,2.05
2023-01-22T04:12:41.503Z,2.33
2023-01-22T04:15:11.983Z,2.30
2023-01-22T04:17:40.691Z,2.60
2023-01-22T04:20:28.432Z,2.25
2023-01-22T04:23:09.336Z,2.28
2023-01-22T04:25:36.300Z,2.22
2023-01-22T04:28:05.019Z,2.10
2023-01-22T04:30:34.817Z,2.80
2023-01-22T04:33:23.061Z,1.90
2023-01-22T04:36:05.553Z,2.38
2023-01-22T04:38:32.429Z,2.45
2023-01-22T04:40:59.305Z,2.33
2023-01-22T04:43:26.351Z,2.47
2023-01-22T04:46:19.714Z,2.50
2023-01-22T04:48:48.272Z,2.30
2023-01-22T04:51:16.573Z,2.40
2023-01-22T04:53:44.953Z,2.50
2023-01-22T04:56:12.039Z,2.42
2023-01-22T04:58:39.195Z,2.40
2023-01-22T05:01:06.812Z,2.28
2023-01-22T05:03:33.751Z,2.30
2023-01-22T05:06:05.015Z,2.50
2023-01-22T05:08:34.473Z,2.30
2023-01-22T05:11:03.411Z,2.50
2023-01-22T05:13:38.793Z,2.47
2023-01-22T05:16:06.740Z,2.03
2023-01-22T05:18:35.746Z,2.60
2023-01-22T05:21:04.483Z,2.50
2023-01-22T05:23:33.221Z,2.38
2023-01-22T05:26:01.439Z,2.38
2023-01-22T05:28:39.642Z,2.38
2023-01-22T05:31:25.785Z,2.20
2023-01-22T05:34:07.936Z,2.28
2023-01-22T05:36:36.655Z,2.33
2023-01-22T05:39:11.498Z,2.17
2023-01-22T05:41:38.691Z,2.28
2023-01-22T05:44:10.171Z,2.10
2023-01-22T05:46:37.633Z,2.40
2023-01-22T05:49:05.061Z,2.50
2023-01-22T05:51:33.904Z,2.30
2023-01-22T05:54:03.048Z,2.40
2023-01-22T05:56:32.615Z,2.38
2023-01-22T05:58:59.637Z,2.17
2023-01-22T06:01:26.696Z,1.98
2023-01-22T06:04:18.759Z,2.47
2023-01-22T06:06:46.048Z,2.38
2023-01-22T06:09:14.823Z,2.40
2023-01-22T06:11:42.722Z,2.40
2023-01-22T06:14:09.737Z,2.00
2023-01-22T06:16:36.980Z,2.22
2023-01-22T06:19:27.033Z,2.20
2023-01-22T06:22:02.807Z,2.33
2023-01-22T06:24:48.057Z,1.98
2023-01-22T06:27:26.931Z,2.17
2023-01-22T06:30:10.762Z,2.00
2023-01-22T06:32:44.572Z,2.05
2023-01-22T06:35:23.267Z,2.60
2023-01-22T06:37:53.503Z,2.40
2023-01-22T06:40:29.351Z,2.50
2023-01-22T06:43:04.700Z,2.20
2023-01-22T06:45:35.257Z,2.35
2023-01-22T06:48:16.462Z,1.70
2023-01-22T06:50:57.866Z,2.42
2023-01-22T06:53:32.505Z,2.15
2023-01-22T06:56:09.174Z,2.42
2023-01-22T06:58:37.345Z,2.67
2023-01-22T07:01:05.924Z,2.00
2023-01-22T07:06:10.123Z,1.83
2023-01-22T07:08:37.011Z,2.73
2023-01-22T07:11:08.079Z,2.22
2023-01-22T07:13:44.895Z,2.38
2023-01-22T07:16:21.992Z,2.50
2023-01-22T07:18:57.778Z,2.28
2023-01-22T07:21:34.916Z,2.15
2023-01-22T07:24:12.339Z,2.30
2023-01-22T07:26:42.054Z,2.13
2023-01-22T07:29:18.378Z,2.03
2023-01-22T07:31:52.801Z,2.25
2023-01-22T07:34:28.745Z,2.20
2023-01-22T07:37:05.235Z,2.15
2023-01-22T07:39:42.059Z,1.98
2023-01-22T07:42:19.118Z,1.92
2023-01-22T07:44:56.111Z,1.95
2023-01-22T07:47:32.961Z,1.98
2023-01-22T07:50:12.522Z,2.15
2023-01-22T07:52:48.805Z,2.00
2023-01-22T07:55:24.187Z,2.10
2023-01-22T07:58:01.997Z,2.40
2023-01-22T08:00:37.057Z,2.17
2023-01-22T08:03:12.511Z,1.88
2023-01-22T08:05:49.556Z,1.92
2023-01-22T08:08:20.987Z,2.13
2023-01-22T08:10:59.083Z,2.08
2023-01-22T08:13:37.245Z,2.00
2023-01-22T08:16:14.441Z,2.13
2023-01-22T08:18:51.377Z,1.90
2023-01-22T08:21:25.058Z,2.10
2023-01-22T08:24:02.187Z,1.95
2023-01-22T08:26:36.968Z,2.17
2023-01-22T08:29:15.155Z,1.88
2023-01-22T08:31:44.453Z,1.88
2023-01-22T08:34:18.085Z,1.95
2023-01-22T08:36:56.033Z,2.03
2023-01-22T08:39:33.057Z,2.08
2023-01-22T08:42:04.923Z,2.20
2023-01-22T08:44:39.005Z,1.90
2023-01-22T08:47:16.103Z,2.17
2023-01-22T08:49:52.794Z,2.08
2023-01-22T08:52:24.706Z,1.95
2023-01-22T08:55:01.562Z,1.88
2023-01-22T08:57:38.767Z,1.75
2023-01-22T09:00:15.133Z,1.95
2023-01-22T09:02:49.359Z,1.90
2023-01-22T09:08:20.382Z,2.22
2023-01-22T09:11:10.086Z,1.77
2023-01-22T09:13:56.516Z,2.13
2023-01-22T09:19:32.874Z,1.98
2023-01-22T09:25:08.111Z,2.08
2023-01-22T09:30:03.632Z,2.35
2023-01-22T09:32:30.730Z,1.83
2023-01-22T09:34:58.875Z,2.28
2023-01-22T09:37:25.738Z,2.13
2023-01-22T09:39:52.938Z,1.90
2023-01-22T09:42:27.447Z,1.95
2023-01-22T09:45:01.611Z,1.80
2023-01-22T09:47:35.725Z,1.88
2023-01-22T09:50:12.257Z,1.90
2023-01-22T09:52:40.689Z,1.88
2023-01-22T09:55:12.742Z,2.10
2023-01-22T09:57:44.039Z,1.92
2023-01-22T10:00:17.596Z,1.73
2023-01-22T10:02:50.240Z,1.70
2023-01-22T10:08:04.589Z,1.90
2023-01-22T10:10:33.961Z,1.83
2023-01-22T10:13:10.951Z,1.73
2023-01-22T10:15:37.892Z,1.70
2023-01-22T10:18:25.546Z,1.65
2023-01-22T10:20:55.367Z,2.00
2023-01-22T10:23:25.303Z,1.92
2023-01-22T10:25:58.991Z,1.80
2023-01-22T10:28:28.166Z,1.83
2023-01-22T10:30:55.386Z,1.58
2023-01-22T10:33:25.542Z,1.98
2023-01-22T10:35:56.343Z,1.88
2023-01-22T10:38:27.351Z,1.67
2023-01-22T10:41:00.148Z,2.10
2023-01-22T10:43:51.537Z,1.67
2023-01-22T10:46:24.302Z,1.70
2023-01-22T10:48:59.944Z,1.60
2023-01-22T10:51:31.633Z,1.55
2023-01-22T10:53:59.596Z,1.98
2023-01-22T10:56:31.016Z,1.80
2023-01-22T10:59:00.014Z,2.08
2023-01-22T11:01:32.601Z,1.58
2023-01-22T11:03:59.598Z,1.83
2023-01-22T11:06:39.267Z,1.63
2023-01-22T11:09:15.659Z,1.92
2023-01-22T11:11:48.826Z,1.85
2023-01-22T11:14:23.208Z,1.77
2023-01-22T11:16:53.961Z,1.48
2023-01-22T11:19:36.327Z,1.50
2023-01-22T11:22:23.607Z,1.95
2023-01-22T11:24:52.826Z,1.80
2023-01-22T11:27:50.080Z,1.60
2023-01-22T11:30:47.892Z,2.15
2023-01-22T11:33:32.289Z,1.90
2023-01-22T11:36:07.702Z,1.83
2023-01-22T11:38:47.992Z,2.60
2023-01-22T11:41:36.316Z,2.35
2023-01-22T11:44:32.153Z,1.92
2023-01-22T11:47:23.676Z,1.58
2023-01-22T11:50:10.375Z,2.50
2023-01-22T11:52:48.539Z,1.63
2023-01-22T11:55:55.371Z,1.58
2023-01-22T11:58:34.738Z,1.60
2023-01-22T12:01:18.112Z,1.38
2023-01-22T12:04:14.378Z,1.45
2023-01-22T12:07:16.739Z,1.35
2023-01-22T12:09:52.515Z,1.40
2023-01-22T12:12:37.754Z,1.38
2023-01-22T12:15:39.301Z,1.70
2023-01-22T12:18:47.748Z,1.52
2023-01-22T12:21:29.298Z,1.52
2023-01-22T12:24:05.916Z,1.50
2023-01-22T12:26:37.824Z,1.30
2023-01-22T12:29:17.158Z,1.30
2023-01-22T12:31:52.652Z,1.40
2023-01-22T12:34:25.701Z,1.42
2023-01-22T12:36:54.824Z,1.40
2023-01-22T12:39:28.623Z,1.30
2023-01-22T12:42:15.584Z,1.27
2023-01-22T12:44:59.598Z,1.40
2023-01-22T12:47:36.197Z,1.48
2023-01-22T12:50:04.845Z,1.20
2023-01-22T12:52:37.060Z,1.48
2023-01-22T12:57:48.969Z,1.58
2023-01-22T13:00:33.415Z,2.83
2023-01-22T13:03:02.141Z,3.50
2023-01-22T13:05:44.404Z,2.40
2023-01-22T13:08:39.628Z,2.33
2023-01-22T13:11:11.025Z,3.10
2023-01-22T13:13:46.863Z,2.30
2023-01-22T13:16:32.250Z,1.80
2023-01-22T13:19:06.690Z,1.40
2023-01-22T13:21:34.688Z,1.25
2023-01-22T13:24:05.760Z,1.92
2023-01-22T13:26:36.003Z,2.23
2023-01-22T13:29:24.940Z,1.60
2023-01-22T13:31:58.785Z,1.23
2023-01-22T13:34:27.565Z,1.00
2023-01-22T13:36:55.571Z,0.85
2023-01-22T13:39:29.553Z,1.20
2023-01-22T13:42:01.178Z,1.00
2023-01-22T13:44:33.791Z,1.05
2023-01-22T13:47:06.398Z,1.08
2023-01-22T13:49:44.367Z,1.02
2023-01-22T13:52:24.651Z,1.15
2023-01-22T13:55:02.127Z,1.60
2023-01-22T13:57:29.328Z,2.00
2023-01-22T13:59:58.455Z,4.15
2023-01-22T14:02:32.884Z,1.52
2023-01-22T14:05:01.142Z,1.63
2023-01-22T14:07:30.917Z,1.00
2023-01-22T14:10:14.547Z,1.20
2023-01-22T14:12:41.748Z,1.08
2023-01-22T14:15:16.949Z,1.10
2023-01-22T14:17:46.208Z,1.83
2023-01-22T14:20:14.166Z,1.42
2023-01-22T14:22:43.286Z,1.85
2023-01-22T14:25:10.733Z,1.58
2023-01-22T14:27:44.783Z,1.30
2023-01-22T14:33:11.933Z,1.30
2023-01-22T14:35:38.719Z,1.05
2023-01-22T14:38:06.012Z,0.90
2023-01-22T14:40:32.733Z,1.20
2023-01-22T14:43:00.173Z,1.00
2023-01-22T14:45:27.648Z,0.90
2023-01-22T14:47:55.155Z,0.98
2023-01-22T14:50:23.895Z,0.82
2023-01-22T14:52:50.982Z,0.90
2023-01-22T14:55:19.037Z,1.33
2023-01-22T14:57:46.386Z,0.95
2023-01-22T15:00:17.315Z,0.98
2023-01-22T15:02:44.656Z,1.08
2023-01-22T15:05:12.308Z,1.02
2023-01-22T15:07:40.532Z,1.02
2023-01-22T15:10:09.450Z,0.90
2023-01-22T15:12:36.230Z,1.00
2023-01-22T15:15:04.018Z,0.88
2023-01-22T15:17:31.209Z,0.93
2023-01-22T15:19:58.009Z,1.05
2023-01-22T15:22:24.846Z,1.08
2023-01-22T15:24:52.927Z,1.08
2023-01-22T15:27:19.699Z,0.90
2023-01-22T15:29:47.001Z,1.35
2023-01-22T15:32:14.496Z,2.67
2023-01-22T15:34:41.973Z,1.80
2023-01-22T15:37:08.839Z,1.80
2023-01-22T15:39:35.673Z,2.15
2023-01-22T15:42:04.569Z,1.70
2023-01-22T15:44:31.640Z,5.00
2023-01-22T15:46:59.585Z,6.32
2023-01-22T15:49:26.753Z,4.70
2023-01-22T15:51:53.542Z,11.10
2023-01-22T15:54:20.427Z,8.68
2023-01-22T15:56:47.612Z,19.58
2023-01-22T15:59:15.859Z,12.30
2023-01-22T16:04:36.030Z,6.93
2023-01-22T16:07:03.034Z,4.00
2023-01-22T16:09:29.809Z,2.85
2023-01-22T16:11:56.565Z,8.43
2023-01-22T16:14:24.934Z,5.28
2023-01-22T16:16:51.810Z,8.77
2023-01-22T16:19:18.639Z,3.25
2023-01-22T16:21:45.378Z,1.92
2023-01-22T16:24:12.187Z,1.92
2023-01-22T16:26:39.269Z,1.88
2023-01-22T16:29:06.544Z,2.10
2023-01-22T16:31:36.428Z,1.60
2023-01-22T16:34:09.424Z,2.20
2023-01-22T16:36:36.938Z,1.90
2023-01-22T16:39:04.468Z,1.85
2023-01-22T16:41:33.450Z,1.65
2023-01-22T16:44:05.344Z,1.38
2023-01-22T16:46:35.894Z,1.58
2023-01-22T16:49:05.802Z,1.30
2023-01-22T16:51:39.117Z,1.10
2023-01-22T16:54:07.833Z,1.15
2023-01-22T16:56:34.932Z,0.95
2023-01-22T16:59:02.241Z,1.00
2023-01-22T17:01:30.805Z,1.00
2023-01-22T17:03:58.931Z,0.82
2023-01-22T17:06:33.107Z,1.00
2023-01-22T17:09:00.405Z,1.20
2023-01-22T17:11:27.186Z,1.27
2023-01-22T17:13:54.534Z,0.90
2023-01-22T17:16:21.466Z,0.88
2023-01-22T17:18:48.227Z,1.02
2023-01-22T17:21:18.788Z,1.10
2023-01-22T17:23:45.747Z,1.17
2023-01-22T17:26:15.509Z,1.10
2023-01-22T17:28:42.913Z,0.80
2023-01-22T17:31:13.673Z,1.02
2023-01-22T17:33:41.181Z,0.93
2023-01-22T17:36:11.794Z,0.93
2023-01-22T17:38:40.126Z,1.17
2023-01-22T17:41:12.831Z,1.63
2023-01-22T17:43:39.812Z,1.95
2023-01-22T17:46:09.950Z,1.42
2023-01-22T17:48:37.985Z,2.03
2023-01-22T17:51:07.691Z,1.50
2023-01-22T17:53:37.132Z,2.03
2023-01-22T17:56:08.430Z,1.75
2023-01-22T17:58:35.416Z,1.57
2023-01-22T18:01:05.094Z,1.50
2023-01-22T18:03:31.852Z,1.23
2023-01-22T18:05:58.715Z,1.50
2023-01-22T18:08:27.437Z,1.05
2023-01-22T18:10:54.325Z,1.15
2023-01-22T18:13:22.884Z,1.20
2023-01-22T18:15:50.063Z,0.90
2023-01-22T18:18:17.613Z,1.17
2023-01-22T18:20:45.429Z,2.00
2023-01-22T18:23:14.077Z,1.67
2023-01-22T18:25:42.139Z,2.17
2023-01-22T18:28:08.902Z,2.03
2023-01-22T18:30:37.069Z,1.60
2023-01-22T18:33:04.213Z,1.85
2023-01-22T18:35:31.156Z,1.92
2023-01-22T18:37:57.947Z,1.73
2023-01-22T18:40:24.756Z,1.65
2023-01-22T18:42:51.732Z,1.70
2023-01-22T18:45:18.914Z,2.53
2023-01-22T18:47:50.732Z,1.60
2023-01-22T18:50:17.966Z,1.88
2023-01-22T18:52:45.444Z,1.50
2023-01-22T18:55:12.320Z,1.02
2023-01-22T18:57:54.530Z,1.35
2023-01-22T19:00:24.356Z,1.25
2023-01-22T19:02:58.731Z,1.30
2023-01-22T19:05:27.631Z,1.50
2023-01-22T19:07:54.922Z,1.50
2023-01-22T19:10:21.846Z,1.48
2023-01-22T19:12:48.910Z,1.42
2023-01-22T19:15:15.895Z,1.85
2023-01-22T19:17:42.823Z,1.25
2023-01-22T19:20:12.927Z,1.30
2023-01-22T19:22:39.685Z,2.15
2023-01-22T19:25:08.216Z,2.17
2023-01-22T19:27:35.026Z,1.88
2023-01-22T19:30:02.466Z,1.45
2023-01-22T19:32:29.482Z,1.30
2023-01-22T19:34:57.318Z,1.33
2023-01-22T19:37:26.669Z,1.38
2023-01-22T19:39:53.527Z,1.60
2023-01-22T19:42:20.481Z,1.50
2023-01-22T19:44:47.356Z,2.90
2023-01-22T19:47:14.395Z,2.35
2023-01-22T19:49:41.300Z,2.30
2023-01-22T19:52:08.112Z,2.50
2023-01-22T19:54:36.492Z,1.83
2023-01-22T19:57:03.259Z,2.67
2023-01-22T19:59:30.119Z,1.67
2023-01-22T20:01:56.961Z,1.40
2023-01-22T20:04:27.506Z,1.55
2023-01-22T20:06:58.092Z,1.83
2023-01-22T20:09:24.961Z,1.40
2023-01-22T20:11:55.037Z,1.70
2023-01-22T20:14:23.432Z,1.40
2023-01-22T20:16:50.318Z,1.05
2023-01-22T20:19:17.304Z,1.02
2023-01-22T20:21:44.181Z,1.30
2023-01-22T20:24:11.253Z,1.35
2023-01-22T20:26:38.244Z,1.30
2023-01-22T20:29:06.541Z,1.38
2023-01-22T20:31:33.618Z,0.93
2023-01-22T20:34:00.845Z,1.30
2023-01-22T20:36:28.099Z,1.67
2023-01-22T20:38:55.763Z,1.67
2023-01-22T20:41:25.018Z,1.42
2023-01-22T20:43:54.363Z,1.20
2023-01-22T20:46:24.948Z,1.00
2023-01-22T20:48:53.724Z,1.40
2023-01-22T20:51:23.310Z,1.20
2023-01-22T20:53:52.486Z,1.25
2023-01-22T20:56:23.178Z,1.40
2023-01-22T20:58:55.359Z,1.58
2023-01-22T21:01:24.280Z,1.40
2023-01-22T21:03:51.279Z,1.55
2023-01-22T21:06:19.931Z,1.50
2023-01-22T21:08:50.113Z,1.30
2023-01-22T21:11:18.602Z,1.38
2023-01-22T21:13:45.834Z,1.33
2023-01-22T21:16:16.225Z,1.38
2023-01-22T21:18:45.705Z,1.40
2023-01-22T21:21:15.503Z,1.30
2023-01-22T21:23:42.445Z,1.35
2023-01-22T21:26:12.911Z,1.50
2023-01-22T21:28:39.744Z,1.27
2023-01-22T21:31:08.238Z,1.10
2023-01-22T21:33:35.253Z,1.35
2023-01-22T21:36:04.755Z,1.27
2023-01-22T21:38:31.875Z,1.20
2023-01-22T21:41:07.495Z,1.10
2023-01-22T21:46:27.593Z,1.00
2023-01-22T21:48:56.645Z,1.10
2023-01-22T21:51:25.629Z,1.08
2023-01-22T21:53:52.907Z,1.20
2023-01-22T21:56:21.216Z,1.38
2023-01-22T21:58:48.098Z,1.05
2023-01-22T22:01:19.303Z,1.40
2023-01-22T22:03:47.094Z,1.20
2023-01-22T22:06:14.244Z,1.25
2023-01-22T22:08:42.579Z,2.03
2023-01-22T22:11:10.853Z,2.67
2023-01-22T22:13:38.044Z,2.60
2023-01-22T22:16:08.440Z,2.33
2023-01-22T22:18:39.719Z,1.60
2023-01-22T22:21:08.516Z,1.60
2023-01-22T22:23:35.877Z,1.50
2023-01-22T22:26:06.016Z,1.23
2023-01-22T22:28:33.784Z,1.00
2023-01-22T22:31:07.860Z,1.48
2023-01-22T22:33:34.800Z,1.00
2023-01-22T22:36:02.182Z,1.15
2023-01-22T22:38:29.161Z,0.82
2023-01-22T22:41:07.192Z,1.00
2023-01-22T22:43:35.845Z,1.00
2023-01-22T22:46:05.716Z,0.70
2023-01-22T22:48:32.873Z,0.90
2023-01-22T22:51:08.487Z,1.05
2023-01-22T22:53:35.292Z,0.70
2023-01-22T22:56:04.479Z,0.73
2023-01-22T22:58:32.355Z,0.60
2023-01-22T23:00:59.937Z,0.70
2023-01-22T23:03:26.738Z,0.73
2023-01-22T23:05:53.522Z,0.80
2023-01-22T23:08:20.263Z,0.70
2023-01-22T23:10:47.126Z,0.70
2023-01-22T23:13:15.439Z,0.65
2023-01-22T23:15:43.336Z,0.70
2023-01-22T23:18:10.622Z,0.80
2023-01-22T23:20:37.431Z,0.70
2023-01-22T23:23:04.176Z,1.05
2023-01-22T23:25:30.959Z,1.02
2023-01-22T23:27:57.724Z,0.82
2023-01-22T23:30:26.183Z,0.90
2023-01-22T23:32:52.976Z,0.90
2023-01-22T23:35:19.728Z,0.95
2023-01-22T23:37:46.510Z,0.90
2023-01-22T23:40:13.708Z,0.90
2023-01-22T23:42:40.469Z,0.65
2023-01-22T23:45:11.599Z,0.73
2023-01-22T23:47:39.983Z,0.80
2023-01-22T23:50:08.242Z,0.68
2023-01-22T23:52:35.286Z,0.90
2023-01-22T23:55:02.265Z,0.50
2023-01-22T23:57:29.120Z,0.60
2023-01-22T23:59:55.875Z,0.60
